Time;durP1;ratioP1;P1;durP2;ratioP2;P2;SDS_P1;SDS_P2;PMS_P1;PMS_P2;Temp;Humidity;BMP_temperature;BMP_pressure;BME280_temperature;BME280_humidity;BME280_pressure;Samples;Min_cycle;Max_cycle;Signal;HPM_P1;HPM_P2
2023/04/07 00:01:07;;;;;;;29.90;26.70;;;7.30;99.90;;;;;;5006833;28;20955;-77
2023/04/07 00:03:33;;;;;;;33.13;27.20;;;7.30;99.90;;;;;;5007292;28;20457;-75
2023/04/07 00:05:58;;;;;;;31.98;27.52;;;7.30;99.90;;;;;;5005683;28;20428;-76
2023/04/07 00:08:24;;;;;;;28.73;24.95;;;7.40;99.90;;;;;;5007135;28;20429;-77
2023/04/07 00:10:50;;;;;;;28.55;25.63;;;7.30;99.90;;;;;;5006953;28;20443;-77
2023/04/07 00:13:15;;;;;;;28.53;25.60;;;7.40;99.90;;;;;;5005544;28;20427;-76
2023/04/07 00:15:41;;;;;;;28.77;25.67;;;7.40;99.90;;;;;;5006553;28;20993;-75
2023/04/07 00:18:06;;;;;;;28.77;25.70;;;7.30;99.90;;;;;;5006402;28;20405;-76
2023/04/07 00:20:32;;;;;;;28.67;25.67;;;7.30;99.90;;;;;;5005577;28;20760;-76
2023/04/07 00:22:58;;;;;;;30.60;26.87;;;7.30;99.90;;;;;;5006024;28;20458;-75
2023/04/07 00:25:23;;;;;;;30.08;26.77;;;7.30;99.90;;;;;;5006214;28;20508;-74
2023/04/07 00:27:49;;;;;;;32.17;28.67;;;7.20;99.90;;;;;;5005590;28;20782;-75
2023/04/07 00:30:15;;;;;;;30.80;27.48;;;7.40;99.90;;;;;;5006120;28;20436;-75
2023/04/07 00:32:40;;;;;;;32.72;28.88;;;7.30;99.90;;;;;;5005613;28;20507;-75
2023/04/07 00:35:06;;;;;;;30.63;27.27;;;7.30;99.90;;;;;;5003979;28;20448;-76
2023/04/07 00:37:32;;;;;;;31.08;27.45;;;7.20;99.90;;;;;;5006205;28;20807;-74
2023/04/07 00:39:58;;;;;;;31.25;27.88;;;7.40;99.90;;;;;;5005545;28;20471;-75
2023/04/07 00:42:24;;;;;;;33.58;28.40;;;7.30;99.90;;;;;;5006069;28;20978;-74
2023/04/07 00:44:49;;;;;;;35.10;28.27;;;7.30;99.90;;;;;;5005839;28;20715;-75
2023/04/07 00:47:15;;;;;;;34.90;28.77;;;7.40;99.90;;;;;;5005581;28;20429;-75
2023/04/07 00:49:41;;;;;;;34.78;28.63;;;7.40;99.90;;;;;;5004596;28;20456;-75
2023/04/07 00:52:10;;;;;;;34.43;29.23;;;7.40;99.90;;;;;;5005515;28;20506;-74
2023/04/07 00:54:36;;;;;;;33.80;28.95;;;7.30;99.90;;;;;;5005754;28;20416;-77
2023/04/07 00:57:02;;;;;;;32.78;28.48;;;7.40;99.90;;;;;;5005961;28;20389;-76
2023/04/07 00:59:30;;;;;;;32.28;28.00;;;7.30;99.90;;;;;;5005650;28;20931;-75
2023/04/07 01:02:05;;;;;;;32.95;28.33;;;7.30;99.90;;;;;;5005069;28;20425;-76
2023/04/07 01:04:40;;;;;;;33.15;28.73;;;7.50;99.90;;;;;;5004846;28;20768;-75
2023/04/07 01:07:14;;;;;;;35.33;30.13;;;7.40;99.90;;;;;;5004989;28;20437;-77
2023/04/07 01:10:03;;;;;;;38.45;30.30;;;7.40;99.90;;;;;;5004313;28;20495;-76
2023/04/07 01:13:10;;;;;;;35.60;30.53;;;7.30;99.90;;;;;;5055113;23;20433;-75
2023/04/07 01:15:38;;;;;;;37.97;30.92;;;7.40;99.90;;;;;;4966865;28;20415;-76
2023/04/07 01:18:13;;;;;;;36.47;29.85;;;7.30;99.90;;;;;;4952343;28;20405;-75
2023/04/07 01:20:42;;;;;;;45.53;34.15;;;7.30;99.90;;;;;;4993574;28;20420;-76
2023/04/07 01:23:10;;;;;;;35.70;30.25;;;7.40;99.90;;;;;;5005049;28;20451;-74
2023/04/07 01:26:17;;;;;;;38.85;32.08;;;7.40;99.90;;;;;;5003664;28;20440;-76
2023/04/07 01:28:43;;;;;;;33.33;29.05;;;7.30;99.90;;;;;;5004845;28;20424;-74
2023/04/07 01:31:11;;;;;;;33.37;28.53;;;7.40;99.90;;;;;;5005154;28;20899;-76
2023/04/07 01:33:38;;;;;;;37.20;30.77;;;7.40;99.90;;;;;;5005085;28;20965;-75
2023/04/07 01:36:06;;;;;;;38.97;32.13;;;7.40;99.90;;;;;;5004026;28;20480;-73
2023/04/07 01:38:33;;;;;;;34.50;29.98;;;7.40;99.90;;;;;;5005210;28;20441;-74
2023/04/07 01:41:00;;;;;;;39.83;33.10;;;7.40;99.90;;;;;;5004257;28;20397;-76
2023/04/07 01:43:27;;;;;;;37.58;31.17;;;7.40;99.90;;;;;;5004968;28;20631;-76
2023/04/07 01:45:54;;;;;;;37.00;30.67;;;7.50;99.90;;;;;;5004251;28;21166;-75
2023/04/07 01:48:21;;;;;;;38.65;32.70;;;7.50;99.90;;;;;;5004649;28;20420;-75
2023/04/07 01:50:48;;;;;;;37.10;31.47;;;7.30;99.90;;;;;;5003323;28;20987;-75
2023/04/07 01:53:15;;;;;;;40.28;33.22;;;7.40;99.90;;;;;;5004246;28;20507;-76
2023/04/07 01:55:42;;;;;;;36.78;31.52;;;7.40;99.90;;;;;;5004901;28;20409;-74
2023/04/07 01:58:08;;;;;;;42.58;34.15;;;7.40;99.90;;;;;;5004845;28;20463;-75
2023/04/07 02:00:34;;;;;;;47.83;34.75;;;7.40;99.90;;;;;;5003774;28;20417;-75
2023/04/07 02:03:19;;;;;;;46.00;35.33;;;7.40;99.90;;;;;;4986573;28;20493;-75
2023/04/07 02:05:47;;;;;;;46.70;36.30;;;7.30;99.90;;;;;;5002079;28;20413;-75
2023/04/07 02:08:16;;;;;;;43.28;36.03;;;7.30;99.90;;;;;;5003577;28;20499;-75
2023/04/07 02:10:45;;;;;;;48.67;36.30;;;7.40;99.90;;;;;;5004385;28;20500;-75
2023/04/07 02:13:15;;;;;;;44.43;36.20;;;7.40;99.90;;;;;;5004519;28;20421;-75
2023/04/07 02:15:44;;;;;;;48.80;37.33;;;7.40;99.90;;;;;;5003760;28;20401;-75
2023/04/07 02:18:13;;;;;;;50.20;37.22;;;7.30;99.90;;;;;;5004528;28;20444;-75
2023/04/07 02:20:41;;;;;;;50.23;37.10;;;7.50;99.90;;;;;;5001895;28;20416;-75
2023/04/07 02:23:07;;;;;;;52.57;38.80;;;7.50;99.90;;;;;;5004524;28;20427;-75
2023/04/07 02:25:33;;;;;;;52.83;38.25;;;7.30;99.90;;;;;;5004765;28;20436;-75
2023/04/07 02:28:00;;;;;;;41.63;33.55;;;7.40;99.90;;;;;;5004020;28;20815;-74
2023/04/07 02:30:26;;;;;;;47.45;36.70;;;7.50;99.90;;;;;;5002990;28;20934;-75
2023/04/07 02:32:52;;;;;;;46.47;36.65;;;7.50;99.90;;;;;;5004059;28;20419;-75
2023/04/07 02:35:18;;;;;;;44.00;35.50;;;7.50;99.90;;;;;;5002240;28;20903;-75
2023/04/07 02:37:45;;;;;;;41.97;34.77;;;7.50;99.90;;;;;;5003918;28;20413;-74
2023/04/07 02:40:11;;;;;;;41.80;34.92;;;7.40;99.90;;;;;;5003884;28;21372;-75
2023/04/07 02:42:37;;;;;;;48.50;36.05;;;7.50;99.90;;;;;;5003958;28;20413;-76
2023/04/07 02:45:04;;;;;;;37.80;33.70;;;7.60;99.90;;;;;;4986546;28;20499;-75
2023/04/07 02:47:30;;;;;;;44.33;35.28;;;7.60;99.90;;;;;;5003739;28;20471;-74
2023/04/07 02:49:56;;;;;;;44.35;35.75;;;7.50;99.90;;;;;;5002008;28;20452;-75
2023/04/07 02:52:22;;;;;;;42.80;34.85;;;7.50;99.90;;;;;;5003831;28;20969;-76
2023/04/07 02:54:47;;;;;;;43.55;35.03;;;7.50;99.90;;;;;;5003657;28;20416;-75
2023/04/07 02:57:13;;;;;;;42.60;34.95;;;7.60;99.90;;;;;;5003829;28;20653;-75
2023/04/07 02:59:40;;;;;;;43.42;35.03;;;7.60;99.90;;;;;;5004049;28;20401;-74
2023/04/07 03:02:05;;;;;;;38.20;32.70;;;7.60;99.90;;;;;;5004062;28;20421;-75
2023/04/07 03:04:31;;;;;;;39.20;33.22;;;7.50;99.90;;;;;;5003419;28;20454;-74
2023/04/07 03:06:57;;;;;;;40.50;33.85;;;7.50;99.90;;;;;;5002498;28;21093;-75
2023/04/07 03:09:23;;;;;;;38.95;33.28;;;7.60;99.90;;;;;;5003629;28;20420;-75
2023/04/07 03:11:48;;;;;;;40.00;33.35;;;7.40;99.90;;;;;;5003342;28;20416;-76
2023/04/07 03:14:15;;;;;;;41.15;33.53;;;7.40;99.90;;;;;;5003740;28;20620;-75
2023/04/07 03:16:41;;;;;;;45.78;34.05;;;7.60;99.90;;;;;;5003259;28;20420;-76
2023/04/07 03:19:07;;;;;;;39.40;32.90;;;7.50;99.90;;;;;;5001960;28;20421;-76
2023/04/07 03:21:33;;;;;;;42.00;33.60;;;7.50;99.90;;;;;;5004209;28;20405;-74
2023/04/07 03:23:59;;;;;;;38.72;33.03;;;7.50;99.90;;;;;;5003327;28;20416;-75
2023/04/07 03:26:25;;;;;;;38.63;31.77;;;7.50;99.90;;;;;;5002563;28;20974;-75
2023/04/07 03:28:50;;;;;;;39.63;32.53;;;7.50;99.90;;;;;;5003404;28;20468;-75
2023/04/07 03:31:16;;;;;;;40.50;32.13;;;7.60;99.90;;;;;;5003498;28;20413;-75
2023/04/07 03:33:42;;;;;;;41.08;33.13;;;7.60;99.90;;;;;;5005694;28;20416;-76
2023/04/07 03:36:07;;;;;;;45.03;34.13;;;7.60;99.90;;;;;;5007179;28;20419;-75
2023/04/07 03:38:33;;;;;;;39.90;32.15;;;7.50;99.90;;;;;;5007335;28;20914;-75
2023/04/07 03:40:59;;;;;;;41.95;33.03;;;7.50;99.90;;;;;;5005548;28;20806;-74
2023/04/07 03:43:25;;;;;;;40.10;31.70;;;7.40;99.90;;;;;;5006043;28;20891;-77
2023/04/07 03:45:53;;;;;;;33.78;29.63;;;7.60;99.90;;;;;;5006573;28;20417;-74
2023/04/07 03:48:19;;;;;;;41.53;33.10;;;7.40;99.90;;;;;;5007221;28;20416;-75
2023/04/07 03:50:45;;;;;;;40.20;32.60;;;7.50;99.90;;;;;;5006450;28;20405;-75
2023/04/07 03:53:14;;;;;;;39.67;31.05;;;7.50;99.90;;;;;;5007008;28;20471;-76
2023/04/07 03:55:40;;;;;;;41.33;31.27;;;7.60;99.90;;;;;;5006860;28;20452;-75
2023/04/07 03:58:06;;;;;;;39.45;31.58;;;7.50;99.90;;;;;;5006922;28;20786;-76
2023/04/07 04:00:32;;;;;;;38.55;30.77;;;7.50;99.90;;;;;;5007456;28;20600;-75
2023/04/07 04:02:58;;;;;;;40.70;31.77;;;7.50;99.90;;;;;;5006979;28;20409;-75
2023/04/07 04:05:24;;;;;;;35.88;28.60;;;7.40;99.90;;;;;;5006563;28;20419;-75
2023/04/07 04:07:51;;;;;;;39.00;30.35;;;7.50;99.90;;;;;;5008949;28;20476;-76
2023/04/07 04:10:20;;;;;;;44.13;31.73;;;7.60;99.90;;;;;;5008061;28;20503;-74
2023/04/07 04:12:47;;;;;;;41.67;30.80;;;7.50;99.90;;;;;;5007438;28;20421;-74
2023/04/07 04:15:13;;;;;;;40.60;30.88;;;7.60;99.90;;;;;;5010191;28;20398;-74
2023/04/07 04:17:40;;;;;;;46.75;32.58;;;7.60;99.90;;;;;;4988811;28;20417;-75
2023/04/07 04:20:07;;;;;;;38.88;30.30;;;7.50;99.90;;;;;;5006110;28;20408;-75
2023/04/07 04:22:32;;;;;;;45.67;31.73;;;7.50;99.90;;;;;;5007775;28;20873;-76
2023/04/07 04:24:58;;;;;;;45.85;32.08;;;7.60;99.90;;;;;;5006319;28;20455;-74
2023/04/07 04:27:24;;;;;;;42.08;30.70;;;7.50;99.90;;;;;;5005526;28;20456;-75
2023/04/07 04:29:50;;;;;;;42.00;30.13;;;7.60;99.90;;;;;;5008445;28;20417;-75
2023/04/07 04:32:16;;;;;;;38.55;29.48;;;7.50;99.90;;;;;;5010170;28;20413;-76
2023/04/07 04:34:42;;;;;;;38.28;28.25;;;7.60;99.90;;;;;;5007632;28;20413;-75
2023/04/07 04:37:08;;;;;;;38.03;27.73;;;7.50;99.90;;;;;;5008951;28;20762;-78
2023/04/07 04:39:34;;;;;;;35.00;27.35;;;7.50;99.90;;;;;;5010524;28;20405;-76
2023/04/07 04:42:00;;;;;;;32.45;25.42;;;7.50;99.90;;;;;;5009590;28;20488;-74
2023/04/07 04:44:26;;;;;;;26.30;22.43;;;7.50;99.90;;;;;;5009321;28;20412;-74
2023/04/07 04:46:52;;;;;;;26.27;21.33;;;7.50;99.90;;;;;;5009812;28;20435;-75
2023/04/07 04:49:18;;;;;;;26.05;21.52;;;7.40;99.90;;;;;;5009337;28;20401;-75
2023/04/07 04:51:45;;;;;;;22.35;19.85;;;7.50;99.90;;;;;;5010104;28;20495;-75
2023/04/07 04:54:10;;;;;;;26.90;22.13;;;7.50;99.90;;;;;;4993150;28;20417;-74
2023/04/07 04:56:36;;;;;;;28.45;22.88;;;7.40;99.90;;;;;;5010357;28;20431;-75
2023/04/07 04:59:03;;;;;;;26.30;21.95;;;7.30;99.90;;;;;;5010609;28;20903;-75
2023/04/07 05:01:29;;;;;;;31.30;24.15;;;7.40;99.90;;;;;;5009797;28;20452;-74
2023/04/07 05:03:55;;;;;;;30.80;23.77;;;7.50;99.90;;;;;;5009021;28;20405;-74
2023/04/07 05:06:21;;;;;;;30.50;24.73;;;7.40;99.90;;;;;;5010335;28;20892;-75
2023/04/07 05:08:46;;;;;;;29.43;24.97;;;7.30;99.90;;;;;;5008833;28;20428;-75
2023/04/07 05:11:12;;;;;;;37.80;27.23;;;7.40;99.90;;;;;;5006168;28;20463;-75
2023/04/07 05:13:38;;;;;;;30.10;26.67;;;7.50;99.90;;;;;;5005153;28;20456;-74
2023/04/07 05:16:04;;;;;;;28.75;23.58;;;7.40;99.90;;;;;;5005981;28;20479;-75
2023/04/07 05:18:30;;;;;;;29.50;25.17;;;7.40;99.90;;;;;;5004946;28;20420;-75
2023/04/07 05:20:55;;;;;;;28.85;24.50;;;7.40;99.90;;;;;;5005042;28;20417;-75
2023/04/07 05:23:21;;;;;;;26.33;23.30;;;7.40;99.90;;;;;;5005462;28;20445;-75
2023/04/07 05:25:47;;;;;;;28.38;23.95;;;7.50;99.90;;;;;;5004784;28;20421;-75
2023/04/07 05:28:12;;;;;;;26.95;23.55;;;7.50;99.90;;;;;;5003727;28;20416;-76
2023/04/07 05:30:38;;;;;;;31.35;25.23;;;7.50;99.90;;;;;;5005127;28;20546;-75
2023/04/07 05:33:04;;;;;;;25.30;22.58;;;7.40;99.90;;;;;;5005115;28;20420;-75
2023/04/07 05:35:30;;;;;;;26.77;22.40;;;7.30;99.90;;;;;;5004450;28;20756;-75
2023/04/07 05:37:55;;;;;;;31.48;23.25;;;7.30;99.90;;;;;;5004642;28;20428;-74
2023/04/07 05:40:21;;;;;;;26.38;21.98;;;7.50;99.90;;;;;;5004845;28;20547;-75
2023/04/07 05:42:47;;;;;;;27.80;22.13;;;7.50;99.90;;;;;;5004794;28;20409;-75
2023/04/07 05:45:13;;;;;;;23.92;21.33;;;7.40;99.90;;;;;;5004726;28;20415;-74
2023/04/07 05:47:39;;;;;;;29.02;22.50;;;7.50;99.90;;;;;;5003414;28;20827;-76
2023/04/07 05:50:05;;;;;;;23.25;20.42;;;7.50;99.90;;;;;;5004409;28;20444;-74
2023/04/07 05:52:31;;;;;;;22.42;19.90;;;7.40;99.90;;;;;;5003723;28;20428;-75
2023/04/07 05:54:57;;;;;;;23.03;20.53;;;7.40;99.90;;;;;;5004398;28;20408;-75
2023/04/07 05:57:22;;;;;;;22.07;19.63;;;7.40;99.90;;;;;;5004526;28;20413;-74
2023/04/07 05:59:48;;;;;;;21.33;18.88;;;7.50;99.90;;;;;;5004963;28;20459;-75
2023/04/07 06:02:14;;;;;;;21.67;19.38;;;7.40;99.90;;;;;;5004692;28;20496;-75
2023/04/07 06:04:40;;;;;;;22.48;19.45;;;7.40;99.90;;;;;;5003526;28;20907;-76
2023/04/07 06:07:06;;;;;;;21.83;19.52;;;7.50;99.90;;;;;;5003510;28;20457;-76
2023/04/07 06:09:32;;;;;;;22.60;20.23;;;7.50;99.90;;;;;;5003783;28;20815;-74
2023/04/07 06:11:57;;;;;;;20.23;18.00;;;7.40;99.90;;;;;;5004589;28;20432;-74
2023/04/07 06:14:24;;;;;;;20.93;18.87;;;7.50;99.90;;;;;;5004893;28;20503;-74
2023/04/07 06:16:50;;;;;;;21.60;19.30;;;7.50;99.90;;;;;;5004036;28;20397;-74
2023/04/07 06:19:16;;;;;;;22.98;20.55;;;7.50;99.90;;;;;;5002235;28;20784;-76
2023/04/07 06:21:41;;;;;;;22.48;20.17;;;7.50;99.90;;;;;;5002809;28;20409;-76
2023/04/07 06:24:07;;;;;;;20.77;18.73;;;7.60;99.90;;;;;;5004078;28;20476;-76
2023/04/07 06:26:33;;;;;;;22.17;19.87;;;7.40;99.90;;;;;;5003437;28;20436;-75
2023/04/07 06:28:59;;;;;;;21.10;19.00;;;7.60;99.90;;;;;;4985754;28;20823;-75
2023/04/07 06:31:25;;;;;;;20.70;18.60;;;7.50;99.90;;;;;;5004116;28;20425;-75
2023/04/07 06:33:51;;;;;;;19.55;17.55;;;7.60;99.90;;;;;;5002951;28;20400;-74
2023/04/07 06:36:17;;;;;;;21.08;18.92;;;7.50;99.90;;;;;;5003765;28;20906;-75
2023/04/07 06:38:43;;;;;;;20.25;18.27;;;7.50;99.90;;;;;;5003917;28;20827;-75
2023/04/07 06:41:15;;;;;;;18.48;16.67;;;7.60;99.90;;;;;;5004158;28;20424;-74
2023/04/07 06:43:45;;;;;;;19.73;17.83;;;7.50;99.90;;;;;;5004511;28;20470;-75
2023/04/07 06:46:10;;;;;;;19.53;17.53;;;7.70;99.90;;;;;;5002897;28;20420;-75
2023/04/07 06:48:36;;;;;;;18.40;16.60;;;7.50;99.90;;;;;;5002804;28;20834;-76
2023/04/07 06:51:02;;;;;;;17.27;15.67;;;7.50;99.90;;;;;;5004487;28;20401;-75
2023/04/07 06:53:27;;;;;;;19.30;17.30;;;7.50;99.90;;;;;;5004149;28;20842;-75
2023/04/07 06:56:05;;;;;;;18.97;17.10;;;7.60;99.90;;;;;;4986367;28;20467;-74
2023/04/07 06:58:30;;;;;;;20.10;18.07;;;7.70;99.90;;;;;;5004172;28;20492;-75
2023/04/07 07:00:56;;;;;;;19.30;17.40;;;7.80;99.90;;;;;;5002330;28;20424;-75
2023/04/07 07:03:21;;;;;;;21.23;19.03;;;7.70;99.90;;;;;;5003567;28;20508;-75
2023/04/07 07:05:47;;;;;;;21.53;19.50;;;7.70;99.90;;;;;;5003542;28;20434;-75
2023/04/07 07:08:13;;;;;;;21.60;19.40;;;7.70;99.90;;;;;;5006812;28;20515;-74
2023/04/07 07:10:38;;;;;;;23.63;21.23;;;7.80;99.90;;;;;;5007790;28;20413;-74
2023/04/07 07:13:04;;;;;;;21.35;19.15;;;7.70;99.90;;;;;;5008038;28;20834;-76
2023/04/07 07:15:29;;;;;;;23.70;21.23;;;7.80;99.90;;;;;;5007869;28;20412;-75
2023/04/07 07:17:55;;;;;;;23.23;20.83;;;7.60;99.90;;;;;;5007465;28;20467;-75
2023/04/07 07:20:22;;;;;;;25.67;22.87;;;7.80;99.90;;;;;;5005643;28;20444;-75
2023/04/07 07:22:48;;;;;;;23.13;20.83;;;7.80;99.90;;;;;;5007959;28;20804;-75
2023/04/07 07:25:14;;;;;;;23.38;20.98;;;7.80;99.90;;;;;;5005932;28;20455;-75
2023/04/07 07:27:39;;;;;;;25.00;22.50;;;7.90;99.90;;;;;;5007211;28;20527;-75
2023/04/07 07:30:05;;;;;;;27.10;23.90;;;8.00;99.90;;;;;;5007987;28;20930;-75
2023/04/07 07:32:31;;;;;;;25.13;22.60;;;8.00;99.90;;;;;;5007992;28;20744;-74
2023/04/07 07:34:58;;;;;;;27.23;24.35;;;7.90;99.90;;;;;;5006899;28;20409;-75
2023/04/07 07:37:23;;;;;;;24.85;22.30;;;8.10;99.90;;;;;;5007960;28;20429;-75
2023/04/07 07:39:49;;;;;;;25.42;22.83;;;7.90;99.90;;;;;;5007166;28;20761;-73
2023/04/07 07:42:15;;;;;;;27.08;24.38;;;8.00;99.90;;;;;;4973538;28;20416;-75
2023/04/07 07:44:40;;;;;;;26.00;23.38;;;8.00;99.90;;;;;;5005680;28;20474;-76
2023/04/07 07:47:06;;;;;;;26.03;23.37;;;8.10;99.90;;;;;;5006919;28;20429;-76
2023/04/07 07:49:32;;;;;;;24.70;22.20;;;8.10;99.90;;;;;;5006766;28;20405;-75
2023/04/07 07:51:58;;;;;;;26.53;23.63;;;8.10;99.90;;;;;;5006702;28;20419;-75
2023/04/07 07:54:24;;;;;;;26.20;23.50;;;8.20;99.90;;;;;;4989086;28;20413;-75
2023/04/07 07:56:51;;;;;;;26.60;23.80;;;8.30;99.90;;;;;;5006823;28;20428;-75
2023/04/07 07:59:17;;;;;;;26.65;23.88;;;8.40;99.90;;;;;;5006995;28;20396;-75
2023/04/07 08:01:42;;;;;;;26.17;23.47;;;8.60;99.90;;;;;;5006377;28;20427;-75
2023/04/07 08:04:08;;;;;;;24.30;21.80;;;8.60;99.90;;;;;;5005132;28;20400;-73
2023/04/07 08:06:35;;;;;;;23.37;21.07;;;8.50;99.90;;;;;;5007374;28;20420;-74
2023/04/07 08:09:00;;;;;;;23.27;20.98;;;8.50;99.90;;;;;;5005943;28;20763;-75
2023/04/07 08:11:26;;;;;;;23.90;21.50;;;8.50;99.90;;;;;;5006979;28;20418;-74
2023/04/07 08:13:52;;;;;;;23.47;21.17;;;8.50;99.90;;;;;;5006051;28;20412;-75
2023/04/07 08:16:19;;;;;;;23.95;21.60;;;8.40;99.90;;;;;;5006305;28;20449;-74
2023/04/07 08:18:45;;;;;;;21.65;19.48;;;8.50;99.90;;;;;;5005095;28;20478;-75
2023/04/07 08:21:11;;;;;;;23.00;20.58;;;8.40;99.90;;;;;;5006814;28;20408;-76
2023/04/07 08:23:37;;;;;;;24.65;22.15;;;8.50;99.90;;;;;;5005379;28;20539;-77
2023/04/07 08:26:03;;;;;;;22.13;19.93;;;8.60;99.90;;;;;;5006435;28;20477;-76
2023/04/07 08:28:28;;;;;;;22.02;19.75;;;8.40;99.90;;;;;;5005401;28;20421;-75
2023/04/07 08:30:54;;;;;;;21.30;19.23;;;8.70;99.90;;;;;;5005994;28;20416;-76
2023/04/07 08:33:20;;;;;;;21.15;19.15;;;8.80;99.90;;;;;;5005366;28;20409;-74
2023/04/07 08:35:46;;;;;;;20.50;18.45;;;8.90;99.90;;;;;;5006132;28;20489;-75
2023/04/07 08:38:11;;;;;;;19.92;17.90;;;9.00;99.90;;;;;;5006257;28;20413;-76
2023/04/07 08:40:37;;;;;;;18.93;17.03;;;9.00;99.90;;;;;;5006210;28;20515;-75
2023/04/07 08:43:08;;;;;;;17.67;16.08;;;9.00;99.90;;;;;;5006705;28;20827;-74
2023/04/07 08:45:39;;;;;;;18.63;16.90;;;9.10;99.90;;;;;;5006877;28;20413;-75
2023/04/07 08:48:13;;;;;;;18.67;16.85;;;9.10;99.90;;;;;;5006211;28;20428;-75
2023/04/07 08:50:40;;;;;;;19.42;17.52;;;9.10;99.90;;;;;;5006815;28;20739;-75
2023/04/07 08:53:08;;;;;;;17.15;15.52;;;9.20;99.90;;;;;;5006704;28;20846;-76
2023/04/07 08:55:35;;;;;;;17.63;15.93;;;9.20;99.90;;;;;;5006857;28;20405;-74
2023/04/07 08:58:02;;;;;;;18.40;16.70;;;9.20;99.90;;;;;;5006657;28;20412;-75
2023/04/07 09:00:28;;;;;;;17.20;15.50;;;9.20;99.90;;;;;;5006234;28;20405;-75
2023/04/07 09:02:54;;;;;;;17.17;15.43;;;9.10;99.90;;;;;;5003869;28;20421;-75
2023/04/07 09:05:21;;;;;;;16.00;14.40;;;9.10;99.90;;;;;;5005321;28;20463;-76
2023/04/07 09:07:46;;;;;;;16.75;15.07;;;9.10;99.90;;;;;;5005969;28;20425;-75
2023/04/07 09:10:12;;;;;;;13.57;12.30;;;9.30;99.90;;;;;;5006279;28;20405;-74
2023/04/07 09:12:38;;;;;;;14.25;12.77;;;9.20;99.90;;;;;;5004564;28;20420;-75
2023/04/07 09:15:07;;;;;;;15.48;13.88;;;9.20;99.90;;;;;;5006848;28;20475;-77
2023/04/07 09:17:33;;;;;;;14.93;13.52;;;9.40;99.90;;;;;;5007546;28;20419;-75
2023/04/07 09:19:59;;;;;;;14.43;13.10;;;9.60;99.90;;;;;;5004460;28;20413;-76
2023/04/07 09:22:41;;;;;;;14.00;12.63;;;9.50;99.90;;;;;;5006250;28;20487;-77
2023/04/07 09:25:26;;;;;;;15.40;13.88;;;9.70;99.90;;;;;;5006162;28;20412;-75
2023/04/07 09:28:02;;;;;;;14.45;13.15;;;9.70;99.90;;;;;;5005700;28;20516;-76
2023/04/07 09:30:32;;;;;;;13.57;12.27;;;9.50;99.90;;;;;;5005260;28;20453;-75
2023/04/07 09:32:59;;;;;;;12.25;11.15;;;9.50;99.90;;;;;;5007346;28;20493;-75
2023/04/07 09:35:27;;;;;;;13.50;12.30;;;9.40;99.90;;;;;;5008810;28;21575;-76
2023/04/07 09:38:04;;;;;;;12.68;11.38;;;9.60;99.90;;;;;;5005631;28;20412;-75
2023/04/07 09:40:30;;;;;;;12.45;11.15;;;9.50;99.90;;;;;;5006872;28;20417;-75
2023/04/07 09:42:57;;;;;;;12.63;11.43;;;9.60;99.90;;;;;;4972973;28;20432;-76
2023/04/07 09:45:27;;;;;;;11.30;10.15;;;9.80;99.90;;;;;;5005850;28;20772;-75
2023/04/07 09:47:53;;;;;;;11.30;10.25;;;9.60;99.90;;;;;;5002977;28;20448;-75
2023/04/07 09:50:38;;;;;;;12.23;10.73;;;9.50;99.90;;;;;;5005962;28;20401;-76
2023/04/07 09:53:04;;;;;;;12.40;11.13;;;9.80;99.90;;;;;;5006134;28;20768;-75
2023/04/07 09:55:30;;;;;;;11.43;10.33;;;10.10;99.90;;;;;;5006312;28;20401;-76
2023/04/07 09:57:57;;;;;;;12.15;11.05;;;10.00;99.90;;;;;;5005858;28;20417;-76
2023/04/07 10:00:23;;;;;;;10.75;9.75;;;10.10;99.90;;;;;;5006030;28;20409;-77
2023/04/07 10:02:50;;;;;;;10.95;9.82;;;9.80;99.90;;;;;;5003942;28;21018;-75
2023/04/07 10:05:16;;;;;;;10.48;9.48;;;9.80;99.90;;;;;;5005738;28;20416;-77
2023/04/07 10:07:42;;;;;;;11.17;10.17;;;10.00;99.90;;;;;;5005535;28;20428;-79
2023/04/07 10:10:08;;;;;;;10.52;9.52;;;10.00;99.90;;;;;;5005367;28;20869;-77
2023/04/07 10:12:36;;;;;;;11.02;10.05;;;9.90;99.90;;;;;;5007501;28;20420;-76
2023/04/07 10:15:02;;;;;;;10.60;9.60;;;9.90;99.90;;;;;;5008105;28;20423;-76
2023/04/07 10:17:29;;;;;;;9.48;8.57;;;10.10;99.90;;;;;;5005612;28;20763;-75
2023/04/07 10:19:57;;;;;;;9.40;8.50;;;9.80;99.90;;;;;;5006372;28;20408;-75
2023/04/07 10:22:25;;;;;;;9.90;9.00;;;9.90;99.90;;;;;;5004808;28;20448;-75
2023/04/07 10:25:11;;;;;;;10.18;9.23;;;10.00;99.90;;;;;;5004964;28;20412;-76
2023/04/07 10:27:51;;;;;;;11.10;9.90;;;10.20;99.90;;;;;;5004519;28;20443;-75
2023/04/07 10:30:23;;;;;;;9.98;9.07;;;10.30;99.90;;;;;;5004822;28;20417;-76
2023/04/07 10:32:51;;;;;;;9.48;8.52;;;10.40;99.90;;;;;;5003682;28;20413;-75
2023/04/07 10:35:17;;;;;;;9.77;8.77;;;10.30;99.90;;;;;;5004486;28;20456;-74
2023/04/07 10:38:12;;;;;;;9.73;8.73;;;10.20;99.90;;;;;;5004828;28;20942;-75
2023/04/07 10:40:39;;;;;;;8.05;7.35;;;10.30;99.90;;;;;;5004659;28;20766;-76
2023/04/07 10:43:10;;;;;;;9.17;8.23;;;10.10;99.90;;;;;;5006253;28;20539;-75
2023/04/07 10:45:48;;;;;;;9.45;8.30;;;10.00;99.90;;;;;;5008599;28;20488;-77
2023/04/07 10:48:18;;;;;;;9.80;8.90;;;10.10;99.90;;;;;;5007423;28;20440;-77
2023/04/07 10:51:09;;;;;;;8.77;7.97;;;10.40;99.90;;;;;;5007686;28;21131;-76
2023/04/07 10:53:35;;;;;;;7.93;7.20;;;10.60;99.90;;;;;;5008291;28;20824;-75
2023/04/07 10:56:01;;;;;;;7.20;6.50;;;10.30;99.90;;;;;;4991525;28;20412;-75
2023/04/07 10:58:28;;;;;;;7.43;6.82;;;10.40;99.90;;;;;;5008467;28;20761;-75
2023/04/07 11:01:00;;;;;;;6.80;6.20;;;10.40;99.90;;;;;;5007811;28;20409;-77
2023/04/07 11:03:27;;;;;;;7.95;7.15;;;10.40;99.90;;;;;;5008222;28;20466;-73
2023/04/07 11:06:09;;;;;;;7.05;6.35;;;10.50;99.90;;;;;;5008925;28;20492;-76
2023/04/07 11:08:38;;;;;;;7.75;7.05;;;10.70;99.90;;;;;;5006854;28;20417;-76
2023/04/07 11:11:08;;;;;;;7.63;6.88;;;10.60;99.90;;;;;;5007861;28;20397;-76
2023/04/07 11:13:48;;;;;;;7.65;6.82;;;10.30;99.90;;;;;;5007459;28;20531;-76
2023/04/07 11:16:16;;;;;;;7.75;7.05;;;10.40;99.90;;;;;;5007699;28;20822;-76
2023/04/07 11:18:46;;;;;;;7.97;7.18;;;10.30;99.90;;;;;;5004577;28;20428;-76
2023/04/07 11:21:18;;;;;;;7.30;6.60;;;10.50;99.90;;;;;;5007579;28;20417;-76
2023/04/07 11:23:44;;;;;;;7.32;6.45;;;10.60;99.90;;;;;;5005826;28;20423;-76
2023/04/07 11:26:12;;;;;;;7.30;6.60;;;10.70;99.90;;;;;;4989422;28;20416;-76
2023/04/07 11:28:54;;;;;;;7.05;6.38;;;10.50;99.90;;;;;;5007267;28;20413;-75
2023/04/07 11:31:28;;;;;;;7.37;6.63;;;10.30;99.90;;;;;;5006038;28;20443;-76
2023/04/07 11:33:58;;;;;;;6.93;6.30;;;10.60;99.90;;;;;;5006329;28;21006;-75
2023/04/07 11:36:37;;;;;;;7.03;6.43;;;10.50;99.90;;;;;;5007104;28;20428;-76
2023/04/07 11:39:02;;;;;;;6.32;5.72;;;10.60;99.90;;;;;;5007755;28;20458;-76
2023/04/07 11:41:30;;;;;;;7.55;6.75;;;10.40;99.90;;;;;;5007054;28;20413;-76
2023/04/07 11:44:09;;;;;;;7.78;6.25;;;10.50;99.90;;;;;;5007127;28;20419;-76
2023/04/07 11:46:36;;;;;;;7.68;6.97;;;10.40;99.90;;;;;;5006816;28;20440;-76
2023/04/07 11:49:14;;;;;;;8.23;7.33;;;10.20;99.90;;;;;;5006189;28;20505;-76
2023/04/07 11:51:42;;;;;;;7.57;6.88;;;10.00;99.90;;;;;;5005488;28;20409;-75
2023/04/07 11:54:09;;;;;;;8.40;7.70;;;10.10;99.90;;;;;;5006615;28;20412;-76
2023/04/07 11:56:46;;;;;;;7.90;7.10;;;10.10;99.90;;;;;;5007562;28;20744;-77
2023/04/07 11:59:23;;;;;;;7.93;7.13;;;10.30;99.90;;;;;;5006929;28;20492;-76
2023/04/07 12:01:50;;;;;;;8.35;7.53;;;10.20;99.90;;;;;;5006806;28;20540;-75
2023/04/07 12:04:16;;;;;;;8.43;7.63;;;10.20;99.90;;;;;;5005976;28;20408;-76
2023/04/07 12:06:43;;;;;;;10.93;7.53;;;10.20;99.90;;;;;;5005262;28;20424;-75
2023/04/07 12:09:33;;;;;;;8.13;7.33;;;10.30;99.90;;;;;;5006715;28;20487;-76
2023/04/07 12:11:59;;;;;;;8.05;7.25;;;10.40;99.90;;;;;;5006042;28;20776;-76
2023/04/07 12:14:26;;;;;;;7.85;7.05;;;10.30;99.90;;;;;;5006846;28;20513;-75
2023/04/07 12:16:55;;;;;;;8.10;7.30;;;10.20;99.90;;;;;;5005289;28;20452;-76
2023/04/07 12:19:22;;;;;;;7.88;7.07;;;10.40;99.90;;;;;;4988303;28;20428;-76
2023/04/07 12:21:48;;;;;;;7.43;6.73;;;10.20;99.90;;;;;;5006239;28;20405;-75
2023/04/07 12:24:13;;;;;;;7.57;6.87;;;10.40;99.90;;;;;;5006457;28;20423;-76
2023/04/07 12:26:39;;;;;;;7.13;6.43;;;10.50;99.90;;;;;;5006239;28;20536;-77
2023/04/07 12:29:05;;;;;;;6.00;5.50;;;10.50;99.90;;;;;;5007032;28;20410;-76
2023/04/07 12:31:31;;;;;;;6.30;5.70;;;10.60;99.90;;;;;;5006765;28;20413;-76
2023/04/07 12:33:57;;;;;;;6.78;6.07;;;10.60;99.90;;;;;;5005045;28;20415;-76
2023/04/07 12:36:24;;;;;;;8.07;6.47;;;10.70;99.90;;;;;;5006092;28;20417;-76
2023/04/07 12:38:50;;;;;;;6.43;5.80;;;10.70;99.90;;;;;;5006023;28;20441;-76
2023/04/07 12:41:16;;;;;;;6.33;5.57;;;11.00;99.90;;;;;;5005140;28;20963;-76